X  Κλείσε Στοιχεία αεροπορικών μετεωρολογικών δεδομένων METAR        LYNI Nis Airport
θερμοκρασία
7°C θερμοκρασία
1°C Σημείο δρόσου
66% Υγρασία



Ανεμος
8 MPH
13 KM/H
4 M/S
7 KTS



330°
VVD
Τρέχουσες συνθήκες

Mostly Clear Σχεδόν ξεκάθαρα
πίεση 1010 (hPa) - 29.84 (inHg)
Ορατότητα 6 (μίλι) - 10 (km)
Aεροδρόμιο
Κωδικός αεροδρομίου LYNI

Τοποθεσία: Nis Airport
Απόσταση: 63 (mi)

Metar:
METAR LYNI 200130Z 33007KT CAVOK 07/01 Q1010 NOSIG

ώρα: 20-04-2024 03:30 CEST